sensor_id;sensor_type;location;lat;lon;timestamp;pressure;altitude;pressure_sealevel;temperature;humidity
51528;BME280;37612;51.768;21.590;2022-12-16T08:05:14;99510.45;;;-4.46;100.00
51528;BME280;37612;51.768;21.590;2022-12-16T08:09:35;99500.14;;;-4.36;100.00
51528;BME280;37612;51.768;21.590;2022-12-16T08:13:54;99494.16;;;-4.21;100.00
51528;BME280;37612;51.768;21.590;2022-12-16T08:18:14;99488.79;;;-4.06;100.00
51528;BME280;37612;51.768;21.590;2022-12-16T08:22:34;99492.08;;;-3.95;100.00
51528;BME280;37612;51.768;21.590;2022-12-16T08:26:55;99499.08;;;-3.88;100.00
51528;BME280;37612;51.768;21.590;2022-12-16T08:31:15;99489.86;;;-3.80;100.00
51528;BME280;37612;51.768;21.590;2022-12-16T08:35:35;99477.84;;;-3.73;100.00
51528;BME280;37612;51.768;21.590;2022-12-16T08:39:55;99467.06;;;-3.70;100.00
51528;BME280;37612;51.768;21.590;2022-12-16T08:44:14;99466.09;;;-3.68;100.00
51528;BME280;37612;51.768;21.590;2022-12-16T08:48:34;99465.63;;;-3.64;100.00
51528;BME280;37612;51.768;21.590;2022-12-16T08:52:54;99465.89;;;-3.59;100.00
51528;BME280;37612;51.768;21.590;2022-12-16T08:57:14;99464.66;;;-3.59;100.00
51528;BME280;37612;51.768;21.590;2022-12-16T09:01:34;99458.71;;;-3.58;100.00
51528;BME280;37612;51.768;21.590;2022-12-16T09:05:58;99470.08;;;-3.50;100.00
51528;BME280;37612;51.768;21.590;2022-12-16T09:10:18;99466.14;;;-3.45;100.00
51528;BME280;37612;51.768;21.590;2022-12-16T09:14:38;99459.18;;;-3.40;100.00
51528;BME280;37612;51.768;21.590;2022-12-16T09:18:58;99451.86;;;-3.32;100.00
51528;BME280;37612;51.768;21.590;2022-12-16T09:23:18;99444.02;;;-3.31;100.00
51528;BME280;37612;51.768;21.590;2022-12-16T09:27:38;99426.65;;;-3.30;100.00
51528;BME280;37612;51.768;21.590;2022-12-16T09:31:58;99410.43;;;-3.29;100.00
51528;BME280;37612;51.768;21.590;2022-12-16T09:36:18;99407.03;;;-3.29;100.00
51528;BME280;37612;51.768;21.590;2022-12-16T09:40:40;99391.79;;;-3.28;100.00
51528;BME280;37612;51.768;21.590;2022-12-16T09:49:48;99386.73;;;-3.23;100.00
51528;BME280;37612;51.768;21.590;2022-12-16T09:54:13;99392.60;;;-3.24;100.00
51528;BME280;37612;51.768;21.590;2022-12-16T09:58:45;99395.54;;;-3.22;100.00
51528;BME280;37612;51.768;21.590;2022-12-16T10:03:22;99385.92;;;-3.16;100.00
51528;BME280;37612;51.768;21.590;2022-12-16T10:07:51;99383.94;;;-3.13;100.00
51528;BME280;37612;51.768;21.590;2022-12-16T10:12:38;99394.13;;;-3.13;100.00
51528;BME280;37612;51.768;21.590;2022-12-16T10:17:12;99381.17;;;-3.11;100.00
51528;BME280;37612;51.768;21.590;2022-12-16T10:31:09;99365.18;;;-3.11;100.00
51528;BME280;37612;51.768;21.590;2022-12-16T10:40:04;99350.18;;;-3.15;100.00
51528;BME280;37612;51.768;21.590;2022-12-16T10:44:32;99348.29;;;-3.09;100.00
51528;BME280;37612;51.768;21.590;2022-12-16T10:48:52;99355.14;;;-3.01;100.00
51528;BME280;37612;51.768;21.590;2022-12-16T10:53:25;99354.88;;;-3.00;100.00
51528;BME280;37612;51.768;21.590;2022-12-16T10:58:30;99350.55;;;-3.02;100.00
51528;BME280;37612;51.768;21.590;2022-12-16T11:03:19;99352.66;;;-2.94;100.00
51528;BME280;37612;51.768;21.590;2022-12-16T11:12:26;99340.70;;;-2.88;100.00
51528;BME280;37612;51.768;21.590;2022-12-16T11:17:19;99337.70;;;-2.84;100.00
51528;BME280;37612;51.768;21.590;2022-12-16T11:21:40;99336.17;;;-2.79;100.00
51528;BME280;37612;51.768;21.590;2022-12-16T11:26:16;99324.50;;;-2.83;100.00
51528;BME280;37612;51.768;21.590;2022-12-16T11:30:41;99322.38;;;-2.83;100.00
51528;BME280;37612;51.768;21.590;2022-12-16T11:35:02;99318.95;;;-2.81;100.00
51528;BME280;37612;51.768;21.590;2022-12-16T11:39:26;99320.27;;;-2.80;100.00
51528;BME280;37612;51.768;21.590;2022-12-16T11:43:50;99318.39;;;-2.73;100.00
51528;BME280;37612;51.768;21.590;2022-12-16T11:48:26;99310.46;;;-2.64;100.00
51528;BME280;37612;51.768;21.590;2022-12-16T11:52:55;99305.48;;;-2.61;100.00
51528;BME280;37612;51.768;21.590;2022-12-16T11:57:22;99303.95;;;-2.52;100.00
51528;BME280;37612;51.768;21.590;2022-12-16T12:02:02;99300.63;;;-2.40;100.00
51528;BME280;37612;51.768;21.590;2022-12-16T12:06:56;99290.66;;;-2.37;100.00
51528;BME280;37612;51.768;21.590;2022-12-16T12:11:53;99288.94;;;-2.33;100.00
51528;BME280;37612;51.768;21.590;2022-12-16T12:26:18;99281.40;;;-2.27;100.00
51528;BME280;37612;51.768;21.590;2022-12-16T12:31:13;99284.19;;;-2.18;100.00
51528;BME280;37612;51.768;21.590;2022-12-16T12:41:26;99291.72;;;-2.13;100.00
51528;BME280;37612;51.768;21.590;2022-12-16T12:46:05;99300.04;;;-2.07;100.00
51528;BME280;37612;51.768;21.590;2022-12-16T12:50:44;99298.83;;;-2.07;100.00
51528;BME280;37612;51.768;21.590;2022-12-16T12:55:27;99306.13;;;-2.05;100.00
51528;BME280;37612;51.768;21.590;2022-12-16T13:04:20;99308.92;;;-2.10;100.00
51528;BME280;37612;51.768;21.590;2022-12-16T13:08:55;99304.40;;;-2.16;100.00
51528;BME280;37612;51.768;21.590;2022-12-16T13:22:31;99297.27;;;-2.32;100.00
51528;BME280;37612;51.768;21.590;2022-12-16T13:27:12;99296.75;;;-2.35;100.00
51528;BME280;37612;51.768;21.590;2022-12-16T13:31:34;99308.34;;;-2.35;100.00
51528;BME280;37612;51.768;21.590;2022-12-16T13:36:16;99299.52;;;-2.39;100.00
51528;BME280;37612;51.768;21.590;2022-12-16T13:40:59;99306.11;;;-2.39;100.00
51528;BME280;37612;51.768;21.590;2022-12-16T13:49:53;99314.70;;;-2.47;100.00
51528;BME280;37612;51.768;21.590;2022-12-16T13:54:12;99319.17;;;-2.50;100.00
51528;BME280;37612;51.768;21.590;2022-12-16T13:58:37;99329.27;;;-2.50;100.00
51528;BME280;37612;51.768;21.590;2022-12-16T14:02:59;99337.64;;;-2.52;100.00
51528;BME280;37612;51.768;21.590;2022-12-16T14:07:39;99347.56;;;-2.54;100.00
51528;BME280;37612;51.768;21.590;2022-12-16T14:12:04;99352.83;;;-2.53;100.00
51528;BME280;37612;51.768;21.590;2022-12-16T14:16:34;99361.64;;;-2.56;100.00
51528;BME280;37612;51.768;21.590;2022-12-16T14:21:03;99372.22;;;-2.58;100.00
51528;BME280;37612;51.768;21.590;2022-12-16T14:25:24;99378.42;;;-2.57;100.00
51528;BME280;37612;51.768;21.590;2022-12-16T14:29:46;99383.52;;;-2.60;100.00
51528;BME280;37612;51.768;21.590;2022-12-16T14:34:16;99390.95;;;-2.63;100.00
51528;BME280;37612;51.768;21.590;2022-12-16T14:38:46;99388.81;;;-2.64;100.00
51528;BME280;37612;51.768;21.590;2022-12-16T14:43:22;99393.64;;;-2.64;100.00
51528;BME280;37612;51.768;21.590;2022-12-16T14:47:42;99395.32;;;-2.67;100.00
51528;BME280;37612;51.768;21.590;2022-12-16T14:52:19;99399.61;;;-2.67;100.00
51528;BME280;37612;51.768;21.590;2022-12-16T14:56:39;99412.67;;;-2.65;100.00
51528;BME280;37612;51.768;21.590;2022-12-16T15:01:13;99408.72;;;-2.69;100.00
51528;BME280;37612;51.768;21.590;2022-12-16T15:05:35;99415.68;;;-2.72;100.00
51528;BME280;37612;51.768;21.590;2022-12-16T15:09:56;99420.09;;;-2.72;100.00
51528;BME280;37612;51.768;21.590;2022-12-16T15:14:29;99420.44;;;-2.72;100.00
51528;BME280;37612;51.768;21.590;2022-12-16T15:18:57;99420.67;;;-2.76;100.00
51528;BME280;37612;51.768;21.590;2022-12-16T15:23:28;99422.95;;;-2.82;100.00
51528;BME280;37612;51.768;21.590;2022-12-16T15:27:54;99423.23;;;-2.83;100.00
51528;BME280;37612;51.768;21.590;2022-12-16T15:36:46;99430.13;;;-2.91;100.00
51528;BME280;37612;51.768;21.590;2022-12-16T15:41:19;99433.95;;;-2.93;100.00
51528;BME280;37612;51.768;21.590;2022-12-16T15:45:47;99439.58;;;-2.93;100.00
51528;BME280;37612;51.768;21.590;2022-12-16T15:50:11;99441.39;;;-2.99;100.00
51528;BME280;37612;51.768;21.590;2022-12-16T15:54:32;99456.20;;;-3.03;100.00
51528;BME280;37612;51.768;21.590;2022-12-16T15:59:13;99451.43;;;-3.06;100.00
51528;BME280;37612;51.768;21.590;2022-12-16T16:03:33;99457.05;;;-3.09;100.00
51528;BME280;37612;51.768;21.590;2022-12-16T16:07:52;99462.70;;;-3.10;100.00
51528;BME280;37612;51.768;21.590;2022-12-16T16:12:17;99468.98;;;-3.10;100.00
51528;BME280;37612;51.768;21.590;2022-12-16T16:16:37;99475.58;;;-3.13;100.00
51528;BME280;37612;51.768;21.590;2022-12-16T16:20:57;99483.45;;;-3.16;100.00
51528;BME280;37612;51.768;21.590;2022-12-16T16:25:17;99481.69;;;-3.16;100.00
51528;BME280;37612;51.768;21.590;2022-12-16T16:29:37;99469.17;;;-3.18;100.00
51528;BME280;37612;51.768;21.590;2022-12-16T16:33:57;99467.90;;;-3.22;100.00
51528;BME280;37612;51.768;21.590;2022-12-16T16:38:17;99475.46;;;-3.26;100.00
51528;BME280;37612;51.768;21.590;2022-12-16T16:42:37;99467.23;;;-3.27;100.00
51528;BME280;37612;51.768;21.590;2022-12-16T16:46:56;99467.44;;;-3.30;100.00
51528;BME280;37612;51.768;21.590;2022-12-16T16:51:16;99472.10;;;-3.36;100.00
51528;BME280;37612;51.768;21.590;2022-12-16T16:55:36;99478.61;;;-3.40;100.00
51528;BME280;37612;51.768;21.590;2022-12-16T16:59:56;99482.61;;;-3.41;100.00
51528;BME280;37612;51.768;21.590;2022-12-16T17:04:16;99497.88;;;-3.47;100.00
51528;BME280;37612;51.768;21.590;2022-12-16T17:08:36;99508.95;;;-3.51;100.00
51528;BME280;37612;51.768;21.590;2022-12-16T17:12:55;99508.18;;;-3.52;100.00
51528;BME280;37612;51.768;21.590;2022-12-16T17:17:15;99510.11;;;-3.52;100.00
51528;BME280;37612;51.768;21.590;2022-12-16T17:21:35;99518.93;;;-3.55;100.00
51528;BME280;37612;51.768;21.590;2022-12-16T17:25:55;99526.58;;;-3.55;100.00
51528;BME280;37612;51.768;21.590;2022-12-16T17:30:25;99527.27;;;-3.53;100.00
51528;BME280;37612;51.768;21.590;2022-12-16T17:34:45;99537.93;;;-3.55;100.00
51528;BME280;37612;51.768;21.590;2022-12-16T17:39:05;99535.88;;;-3.59;100.00
51528;BME280;37612;51.768;21.590;2022-12-16T17:43:25;99545.25;;;-3.57;100.00
51528;BME280;37612;51.768;21.590;2022-12-16T17:47:45;99555.40;;;-3.57;100.00
51528;BME280;37612;51.768;21.590;2022-12-16T17:52:05;99561.70;;;-3.59;100.00
51528;BME280;37612;51.768;21.590;2022-12-16T17:56:28;99573.04;;;-3.56;100.00
51528;BME280;37612;51.768;21.590;2022-12-16T18:00:48;99584.55;;;-3.57;100.00
51528;BME280;37612;51.768;21.590;2022-12-16T18:05:09;99595.38;;;-3.57;100.00
51528;BME280;37612;51.768;21.590;2022-12-16T18:09:29;99610.02;;;-3.54;100.00
51528;BME280;37612;51.768;21.590;2022-12-16T18:13:59;99609.20;;;-3.55;100.00
51528;BME280;37612;51.768;21.590;2022-12-16T18:18:19;99614.71;;;-3.58;100.00
51528;BME280;37612;51.768;21.590;2022-12-16T18:22:39;99619.48;;;-3.58;100.00
51528;BME280;37612;51.768;21.590;2022-12-16T18:26:59;99624.30;;;-3.58;100.00
51528;BME280;37612;51.768;21.590;2022-12-16T18:31:19;99628.76;;;-3.60;100.00
51528;BME280;37612;51.768;21.590;2022-12-16T18:35:40;99631.74;;;-3.59;100.00
51528;BME280;37612;51.768;21.590;2022-12-16T18:40:14;99638.04;;;-3.56;100.00
51528;BME280;37612;51.768;21.590;2022-12-16T18:44:33;99642.98;;;-3.57;100.00
51528;BME280;37612;51.768;21.590;2022-12-16T18:48:53;99654.45;;;-3.58;100.00
51528;BME280;37612;51.768;21.590;2022-12-16T18:53:14;99656.40;;;-3.59;100.00
51528;BME280;37612;51.768;21.590;2022-12-16T18:58:11;99653.66;;;-3.62;100.00
51528;BME280;37612;51.768;21.590;2022-12-16T19:02:31;99652.63;;;-3.64;100.00
51528;BME280;37612;51.768;21.590;2022-12-16T19:07:03;99664.83;;;-3.62;100.00
51528;BME280;37612;51.768;21.590;2022-12-16T19:11:28;99667.05;;;-3.67;100.00
51528;BME280;37612;51.768;21.590;2022-12-16T19:15:55;99664.94;;;-3.74;100.00
51528;BME280;37612;51.768;21.590;2022-12-16T19:20:17;99657.65;;;-3.72;100.00
51528;BME280;37612;51.768;21.590;2022-12-16T19:24:37;99668.23;;;-3.72;100.00
51528;BME280;37612;51.768;21.590;2022-12-16T19:29:05;99676.31;;;-3.76;100.00
51528;BME280;37612;51.768;21.590;2022-12-16T19:33:38;99686.59;;;-3.76;100.00
51528;BME280;37612;51.768;21.590;2022-12-16T19:37:58;99697.06;;;-3.74;100.00
51528;BME280;37612;51.768;21.590;2022-12-16T19:42:17;99702.16;;;-3.78;100.00
51528;BME280;37612;51.768;21.590;2022-12-16T19:46:37;99705.57;;;-3.81;100.00
51528;BME280;37612;51.768;21.590;2022-12-16T19:51:04;99702.13;;;-3.79;100.00
51528;BME280;37612;51.768;21.590;2022-12-16T19:55:28;99707.80;;;-3.80;100.00
51528;BME280;37612;51.768;21.590;2022-12-16T19:59:57;99714.71;;;-3.85;100.00
51528;BME280;37612;51.768;21.590;2022-12-16T20:04:20;99721.67;;;-3.83;100.00
51528;BME280;37612;51.768;21.590;2022-12-16T20:08:51;99730.55;;;-3.82;100.00
51528;BME280;37612;51.768;21.590;2022-12-16T20:13:17;99740.45;;;-3.87;100.00
51528;BME280;37612;51.768;21.590;2022-12-16T20:17:46;99754.05;;;-3.90;100.00
51528;BME280;37612;51.768;21.590;2022-12-16T20:22:14;99757.02;;;-3.91;100.00
51528;BME280;37612;51.768;21.590;2022-12-16T20:26:36;99754.27;;;-3.91;100.00
51528;BME280;37612;51.768;21.590;2022-12-16T20:31:01;99760.28;;;-3.95;100.00
51528;BME280;37612;51.768;21.590;2022-12-16T20:35:22;99761.77;;;-3.96;100.00
51528;BME280;37612;51.768;21.590;2022-12-16T20:39:42;99761.91;;;-3.96;100.00
51528;BME280;37612;51.768;21.590;2022-12-16T20:44:02;99755.55;;;-4.01;100.00
51528;BME280;37612;51.768;21.590;2022-12-16T20:48:21;99754.83;;;-4.06;100.00
51528;BME280;37612;51.768;21.590;2022-12-16T20:52:44;99766.45;;;-4.07;100.00
51528;BME280;37612;51.768;21.590;2022-12-16T20:57:07;99771.63;;;-4.12;100.00
51528;BME280;37612;51.768;21.590;2022-12-16T21:01:30;99772.54;;;-4.13;100.00
51528;BME280;37612;51.768;21.590;2022-12-16T21:05:53;99789.61;;;-4.13;100.00
51528;BME280;37612;51.768;21.590;2022-12-16T21:10:19;99791.37;;;-4.15;100.00
51528;BME280;37612;51.768;21.590;2022-12-16T21:14:39;99789.25;;;-4.16;100.00
51528;BME280;37612;51.768;21.590;2022-12-16T21:18:59;99801.15;;;-4.14;100.00
51528;BME280;37612;51.768;21.590;2022-12-16T21:23:19;99800.52;;;-4.16;100.00
51528;BME280;37612;51.768;21.590;2022-12-16T21:27:39;99800.08;;;-4.18;100.00
51528;BME280;37612;51.768;21.590;2022-12-16T21:32:04;99810.91;;;-4.16;100.00
51528;BME280;37612;51.768;21.590;2022-12-16T21:36:24;99827.47;;;-4.13;100.00
51528;BME280;37612;51.768;21.590;2022-12-16T21:40:50;99830.86;;;-4.15;100.00
51528;BME280;37612;51.768;21.590;2022-12-16T21:45:13;99827.23;;;-4.15;100.00
51528;BME280;37612;51.768;21.590;2022-12-16T21:49:36;99833.14;;;-4.14;100.00
51528;BME280;37612;51.768;21.590;2022-12-16T21:54:02;99837.19;;;-4.14;100.00
51528;BME280;37612;51.768;21.590;2022-12-16T21:58:25;99841.11;;;-4.14;100.00
51528;BME280;37612;51.768;21.590;2022-12-16T22:02:49;99853.61;;;-4.10;100.00
51528;BME280;37612;51.768;21.590;2022-12-16T22:07:12;99864.44;;;-4.12;100.00
51528;BME280;37612;51.768;21.590;2022-12-16T22:11:35;99874.85;;;-4.14;100.00
51528;BME280;37612;51.768;21.590;2022-12-16T22:15:58;99876.98;;;-4.13;100.00
51528;BME280;37612;51.768;21.590;2022-12-16T22:20:21;99876.59;;;-4.12;100.00
51528;BME280;37612;51.768;21.590;2022-12-16T22:24:44;99868.79;;;-4.16;100.00
51528;BME280;37612;51.768;21.590;2022-12-16T22:29:07;99872.88;;;-4.15;100.00
51528;BME280;37612;51.768;21.590;2022-12-16T22:33:31;99897.16;;;-4.13;100.00
51528;BME280;37612;51.768;21.590;2022-12-16T22:37:54;99904.77;;;-4.13;100.00
51528;BME280;37612;51.768;21.590;2022-12-16T22:42:17;99900.77;;;-4.14;100.00
51528;BME280;37612;51.768;21.590;2022-12-16T22:46:42;99907.58;;;-4.11;100.00
51528;BME280;37612;51.768;21.590;2022-12-16T22:51:11;99914.23;;;-4.11;100.00
51528;BME280;37612;51.768;21.590;2022-12-16T22:55:34;99913.20;;;-4.14;100.00
51528;BME280;37612;51.768;21.590;2022-12-16T22:59:57;99909.55;;;-4.12;100.00
51528;BME280;37612;51.768;21.590;2022-12-16T23:04:19;99912.54;;;-4.12;100.00
51528;BME280;37612;51.768;21.590;2022-12-16T23:08:44;99908.58;;;-4.12;100.00
51528;BME280;37612;51.768;21.590;2022-12-16T23:13:10;99909.96;;;-4.08;100.00
51528;BME280;37612;51.768;21.590;2022-12-16T23:17:33;99903.96;;;-4.06;100.00
51528;BME280;37612;51.768;21.590;2022-12-16T23:21:55;99890.23;;;-4.10;100.00
51528;BME280;37612;51.768;21.590;2022-12-16T23:26:19;99880.02;;;-4.14;100.00
51528;BME280;37612;51.768;21.590;2022-12-16T23:31:03;99879.48;;;-4.13;100.00
51528;BME280;37612;51.768;21.590;2022-12-16T23:36:12;99862.08;;;-4.16;100.00
51528;BME280;37612;51.768;21.590;2022-12-16T23:41:16;99879.50;;;-4.22;100.00
51528;BME280;37612;51.768;21.590;2022-12-16T23:45:47;99896.69;;;-4.18;100.00
51528;BME280;37612;51.768;21.590;2022-12-16T23:50:17;99899.46;;;-4.20;100.00
51528;BME280;37612;51.768;21.590;2022-12-16T23:59:08;99904.39;;;-4.15;100.00
